Time;durP1;ratioP1;P1;durP2;ratioP2;P2;SDS_P1;SDS_P2;PMS_P1;PMS_P2;Temp;Humidity;BMP_temperature;BMP_pressure;BME280_temperature;BME280_humidity;BME280_pressure;Samples;Min_cycle;Max_cycle;Signal;HPM_P1;HPM_P2
2021/05/10 00:00:50;;;;;;;0.75;0.10;;;23.80;38.50;;;;;;5042220;28;20029;-49
2021/05/10 00:03:19;;;;;;;0.30;0.10;;;23.80;38.50;;;;;;5039014;28;20064;-50
2021/05/10 00:05:46;;;;;;;0.40;0.10;;;23.80;38.50;;;;;;5035513;28;20072;-48
2021/05/10 00:08:12;;;;;;;0.30;0.10;;;23.80;38.50;;;;;;5042124;28;20075;-45
2021/05/10 00:10:39;;;;;;;0.30;0.10;;;23.80;38.50;;;;;;5027949;28;20029;-48
2021/05/10 00:13:07;;;;;;;0.20;0.00;;;23.80;38.60;;;;;;5034227;28;20030;-48
2021/05/10 00:15:34;;;;;;;0.35;0.00;;;23.70;38.50;;;;;;5028004;28;20128;-47
2021/05/10 00:18:03;;;;;;;0.45;0.10;;;23.80;38.50;;;;;;5035663;28;20017;-48
2021/05/10 00:20:37;;;;;;;0.60;0.10;;;23.70;38.50;;;;;;5032293;28;20094;-46
2021/05/10 00:23:04;;;;;;;0.60;0.10;;;23.80;38.50;;;;;;5015920;28;20037;-48
2021/05/10 00:25:31;;;;;;;0.35;0.10;;;23.80;38.60;;;;;;5028111;28;20026;-47
2021/05/10 00:27:57;;;;;;;0.30;0.10;;;23.70;38.50;;;;;;5030238;28;20112;-49
2021/05/10 00:30:24;;;;;;;0.50;0.10;;;23.70;38.50;;;;;;5040006;28;20549;-50
2021/05/10 00:32:51;;;;;;;0.30;0.10;;;23.80;38.50;;;;;;5026198;28;20026;-47
2021/05/10 00:35:18;;;;;;;0.30;0.10;;;23.80;38.50;;;;;;5047553;28;20017;-48
2021/05/10 00:37:44;;;;;;;0.32;0.10;;;23.80;38.50;;;;;;5049207;28;20017;-50
2021/05/10 00:40:12;;;;;;;0.77;0.10;;;23.80;38.50;;;;;;5045772;28;20421;-47
2021/05/10 00:42:39;;;;;;;0.20;0.10;;;23.80;38.50;;;;;;5027773;28;20022;-47
2021/05/10 00:45:06;;;;;;;0.52;0.10;;;23.80;38.50;;;;;;5024433;28;20017;-49
2021/05/10 00:47:32;;;;;;;0.25;0.10;;;23.70;38.50;;;;;;5029492;28;20013;-49
2021/05/10 00:49:58;;;;;;;0.20;0.08;;;23.70;38.50;;;;;;5031715;28;20554;-49
2021/05/10 00:52:24;;;;;;;0.57;0.08;;;23.70;38.40;;;;;;5025728;28;20029;-49
2021/05/10 00:54:52;;;;;;;0.10;0.00;;;23.70;38.50;;;;;;5031626;28;20029;-48
2021/05/10 00:57:19;;;;;;;0.20;0.10;;;23.80;38.50;;;;;;5024938;28;20053;-48
2021/05/10 00:59:48;;;;;;;0.75;0.10;;;23.70;38.50;;;;;;5032287;28;20487;-48
2021/05/10 01:02:14;;;;;;;0.30;0.10;;;23.70;38.50;;;;;;5035065;28;20112;-48
2021/05/10 01:04:41;;;;;;;0.30;0.10;;;23.70;38.50;;;;;;5038924;28;20116;-50
2021/05/10 01:07:07;;;;;;;0.10;0.10;;;23.70;38.50;;;;;;5029047;28;20048;-50
2021/05/10 01:09:33;;;;;;;0.20;0.10;;;23.70;38.40;;;;;;5042196;28;20040;-51
2021/05/10 01:11:59;;;;;;;0.20;0.10;;;23.70;38.50;;;;;;5029872;28;20400;-50
2021/05/10 01:14:25;;;;;;;0.30;0.10;;;23.70;38.50;;;;;;5036155;28;20060;-48
2021/05/10 01:16:51;;;;;;;0.43;0.10;;;23.70;38.40;;;;;;5035690;28;20021;-47
2021/05/10 01:19:18;;;;;;;0.15;0.10;;;23.70;38.50;;;;;;5047088;28;20037;-49
2021/05/10 01:21:47;;;;;;;0.90;0.08;;;23.70;38.40;;;;;;5042135;28;20048;-49
2021/05/10 01:24:13;;;;;;;0.43;0.10;;;23.70;38.40;;;;;;5040831;28;20055;-48
2021/05/10 01:26:39;;;;;;;0.35;0.10;;;23.70;38.40;;;;;;5030051;28;20040;-48
2021/05/10 01:29:05;;;;;;;0.25;0.10;;;23.70;38.50;;;;;;5035945;28;20665;-49
2021/05/10 01:31:31;;;;;;;0.45;0.10;;;23.70;38.40;;;;;;5045051;28;20033;-49
2021/05/10 01:33:57;;;;;;;0.20;0.10;;;23.70;38.40;;;;;;5036971;28;20028;-49
2021/05/10 01:36:23;;;;;;;0.60;0.00;;;23.70;38.40;;;;;;5030342;28;20022;-48
2021/05/10 01:38:49;;;;;;;0.70;0.20;;;23.70;38.40;;;;;;5044231;28;20938;-50
2021/05/10 01:41:15;;;;;;;0.60;0.08;;;23.70;38.40;;;;;;5031705;28;20062;-48
2021/05/10 01:43:41;;;;;;;2.88;0.10;;;23.70;38.40;;;;;;5039488;28;20486;-50
2021/05/10 01:46:07;;;;;;;0.30;0.10;;;23.70;38.50;;;;;;5041105;28;20029;-52
2021/05/10 01:48:33;;;;;;;0.13;0.00;;;23.70;38.40;;;;;;5043248;28;20028;-52
2021/05/10 01:50:59;;;;;;;0.57;0.10;;;23.70;38.50;;;;;;5047808;28;20128;-48
2021/05/10 01:53:25;;;;;;;0.20;0.10;;;23.70;38.40;;;;;;5034522;28;20037;-48
2021/05/10 01:55:51;;;;;;;1.63;0.10;;;23.70;38.40;;;;;;5032866;28;20019;-46
2021/05/10 01:58:17;;;;;;;0.10;0.00;;;23.70;38.50;;;;;;5024066;28;20037;-49
2021/05/10 02:00:45;;;;;;;0.38;0.08;;;23.70;38.40;;;;;;5023584;28;20406;-50
2021/05/10 02:03:19;;;;;;;0.68;0.10;;;23.70;38.40;;;;;;5031841;28;20482;-49
2021/05/10 02:05:46;;;;;;;0.40;0.20;;;23.70;38.40;;;;;;5044137;28;20107;-50
2021/05/10 02:08:13;;;;;;;0.20;0.00;;;23.70;38.40;;;;;;5027373;28;20032;-48
2021/05/10 02:10:50;;;;;;;0.35;0.10;;;23.70;38.40;;;;;;5031346;28;20061;-48
2021/05/10 02:13:19;;;;;;;0.20;0.10;;;23.70;38.40;;;;;;5019097;28;20016;-50
2021/05/10 02:15:46;;;;;;;0.40;0.10;;;23.70;38.40;;;;;;5038945;28;20026;-48
2021/05/10 02:18:15;;;;;;;0.10;0.10;;;23.70;38.40;;;;;;5041899;28;20028;-50
2021/05/10 02:20:41;;;;;;;0.77;0.10;;;23.70;38.40;;;;;;5026632;28;20025;-50
2021/05/10 02:23:14;;;;;;;1.33;0.10;;;23.70;38.40;;;;;;5028371;28;20047;-50
2021/05/10 02:25:42;;;;;;;0.10;0.00;;;23.70;38.40;;;;;;5041046;28;20025;-50
2021/05/10 02:28:10;;;;;;;0.13;0.08;;;23.70;38.40;;;;;;5046781;28;20025;-48
2021/05/10 02:30:37;;;;;;;0.20;0.10;;;23.70;38.40;;;;;;5046156;28;20037;-48
2021/05/10 02:33:06;;;;;;;0.43;0.00;;;23.70;38.40;;;;;;5037467;28;20024;-47
2021/05/10 02:35:33;;;;;;;0.63;0.00;;;23.70;38.40;;;;;;5039520;28;20021;-50
2021/05/10 02:37:59;;;;;;;0.30;0.10;;;23.70;38.40;;;;;;5036380;28;20060;-48
2021/05/10 02:40:25;;;;;;;0.15;0.05;;;23.60;38.30;;;;;;5031267;28;20036;-48
2021/05/10 02:42:51;;;;;;;0.68;0.00;;;23.70;38.40;;;;;;5036651;28;20091;-46
2021/05/10 02:45:18;;;;;;;0.47;0.10;;;23.70;38.40;;;;;;5041788;28;20112;-50
2021/05/10 02:47:45;;;;;;;0.20;0.10;;;23.70;38.40;;;;;;5040416;28;20036;-50
2021/05/10 02:50:15;;;;;;;0.20;0.10;;;23.70;38.40;;;;;;5038943;28;20025;-50
2021/05/10 02:52:42;;;;;;;0.30;0.10;;;23.70;38.40;;;;;;5034435;28;20025;-49
2021/05/10 02:55:08;;;;;;;0.30;0.10;;;23.60;38.40;;;;;;5038030;28;20032;-49
2021/05/10 02:57:35;;;;;;;1.23;0.10;;;23.70;38.40;;;;;;5029990;28;20083;-50
2021/05/10 03:00:03;;;;;;;0.20;0.00;;;23.70;38.30;;;;;;5046396;28;20029;-50
2021/05/10 03:02:29;;;;;;;0.93;0.13;;;23.70;38.40;;;;;;5024096;28;20029;-50
2021/05/10 03:04:55;;;;;;;0.22;0.10;;;23.70;38.40;;;;;;5048151;28;20025;-50
2021/05/10 03:07:21;;;;;;;0.25;0.05;;;23.70;38.40;;;;;;5033105;28;20026;-47
2021/05/10 03:09:46;;;;;;;0.20;0.05;;;23.70;38.40;;;;;;5035769;28;20418;-50
2021/05/10 03:12:13;;;;;;;0.10;0.10;;;23.70;38.40;;;;;;5031180;28;20617;-48
2021/05/10 03:14:38;;;;;;;0.30;0.08;;;23.70;38.40;;;;;;5038946;28;20170;-47
2021/05/10 03:17:04;;;;;;;0.30;0.10;;;23.70;38.40;;;;;;5035078;28;20577;-48
2021/05/10 03:19:32;;;;;;;0.43;0.00;;;23.60;38.30;;;;;;5044188;28;20024;-48
2021/05/10 03:21:58;;;;;;;0.20;0.10;;;23.60;38.30;;;;;;5036510;28;20021;-49
2021/05/10 03:24:24;;;;;;;0.20;0.05;;;23.60;38.30;;;;;;5038512;28;20040;-47
2021/05/10 03:26:50;;;;;;;0.22;0.10;;;23.70;38.90;;;;;;5028250;28;20034;-48
2021/05/10 03:29:16;;;;;;;0.30;0.10;;;23.60;38.30;;;;;;5023551;28;20525;-47
2021/05/10 03:31:42;;;;;;;0.20;0.08;;;23.60;38.30;;;;;;5021488;28;20029;-47
2021/05/10 03:34:08;;;;;;;0.13;0.00;;;23.60;38.30;;;;;;5025490;28;20033;-45
2021/05/10 03:36:34;;;;;;;0.65;0.10;;;23.70;38.40;;;;;;5041864;28;20030;-51
2021/05/10 03:39:04;;;;;;;0.22;0.03;;;23.60;38.30;;;;;;5037964;28;20046;-48
2021/05/10 03:41:30;;;;;;;0.60;0.10;;;23.60;38.30;;;;;;5049121;28;20111;-49
2021/05/10 03:43:59;;;;;;;0.20;0.00;;;23.60;38.30;;;;;;5036916;28;20468;-50
2021/05/10 03:46:25;;;;;;;0.35;0.10;;;23.60;38.30;;;;;;5022958;28;20073;-49
2021/05/10 03:48:52;;;;;;;0.05;0.00;;;23.60;38.30;;;;;;5024010;28;20028;-47
2021/05/10 03:51:18;;;;;;;0.30;0.10;;;23.60;38.30;;;;;;5036671;28;20036;-48
2021/05/10 03:53:44;;;;;;;0.35;0.10;;;23.70;38.30;;;;;;5035393;28;20533;-50
2021/05/10 03:56:10;;;;;;;0.32;0.10;;;23.60;38.30;;;;;;5025469;28;20057;-51
2021/05/10 03:58:37;;;;;;;0.10;0.05;;;23.60;38.30;;;;;;5034738;28;20029;-49
2021/05/10 04:01:03;;;;;;;0.20;0.10;;;23.70;38.30;;;;;;5040941;28;20079;-48
2021/05/10 04:03:38;;;;;;;0.20;0.10;;;23.60;38.80;;;;;;5043188;28;20440;-48
2021/05/10 04:07:05;;;;;;;0.43;0.10;;;23.60;38.30;;;;;;5041578;28;20026;-49
2021/05/10 04:09:08;;;;;;;0.17;0.10;;;23.60;38.30;;;;;;5017229;28;20055;-48
2021/05/10 04:14:19;;;;;;;0.30;0.10;;;23.60;38.20;;;;;;5033239;28;20029;-50
2021/05/10 04:16:45;;;;;;;0.10;0.00;;;23.60;38.20;;;;;;5037517;28;20049;-49
2021/05/10 04:19:11;;;;;;;0.13;0.00;;;23.60;38.20;;;;;;5041488;28;20580;-45
2021/05/10 04:21:37;;;;;;;0.30;0.10;;;23.60;38.20;;;;;;5033822;28;20032;-48
2021/05/10 04:24:04;;;;;;;0.10;0.00;;;23.60;38.30;;;;;;5039893;28;20017;-49
2021/05/10 04:26:30;;;;;;;0.20;0.00;;;23.60;38.70;;;;;;5027844;28;20632;-48
2021/05/10 04:28:55;;;;;;;0.30;0.10;;;23.60;38.20;;;;;;5039276;28;20032;-49
2021/05/10 04:31:22;;;;;;;0.40;0.10;;;23.60;38.30;;;;;;5027301;28;20113;-48
2021/05/10 04:33:48;;;;;;;0.40;0.10;;;23.60;38.20;;;;;;5044227;28;20104;-50
2021/05/10 04:36:14;;;;;;;0.20;0.10;;;23.60;38.20;;;;;;5000106;28;20079;-49
2021/05/10 04:38:43;;;;;;;0.10;0.00;;;23.60;38.20;;;;;;5041601;28;20033;-49
2021/05/10 04:41:10;;;;;;;0.80;0.10;;;23.60;38.20;;;;;;5032898;28;20665;-48
2021/05/10 04:43:36;;;;;;;0.22;0.00;;;23.60;38.20;;;;;;5033245;28;20054;-49
2021/05/10 04:46:02;;;;;;;1.08;0.10;;;23.60;38.20;;;;;;5045936;28;20090;-49
2021/05/10 04:48:28;;;;;;;0.38;0.10;;;23.60;38.20;;;;;;5040697;28;20025;-48
2021/05/10 04:50:55;;;;;;;0.40;0.00;;;23.60;38.20;;;;;;5039576;28;20029;-47
2021/05/10 04:53:21;;;;;;;0.30;0.10;;;23.60;38.20;;;;;;5034668;28;20040;-49
2021/05/10 04:55:47;;;;;;;0.50;0.10;;;23.60;38.20;;;;;;5027801;28;20037;-49
2021/05/10 04:58:13;;;;;;;0.20;0.08;;;23.60;38.20;;;;;;5030365;28;20122;-50
2021/05/10 05:00:39;;;;;;;0.30;0.10;;;23.60;38.20;;;;;;5035442;28;20486;-49
2021/05/10 05:03:05;;;;;;;0.38;0.03;;;23.60;38.20;;;;;;5029534;28;20051;-47
2021/05/10 05:05:31;;;;;;;0.10;0.00;;;23.60;38.20;;;;;;5035892;28;20495;-48
2021/05/10 05:07:57;;;;;;;0.20;0.10;;;23.60;38.20;;;;;;5029525;28;20029;-50
2021/05/10 05:10:23;;;;;;;0.40;0.00;;;23.60;38.20;;;;;;5028389;28;20053;-51
2021/05/10 05:12:49;;;;;;;0.40;0.10;;;23.60;38.20;;;;;;5032098;28;20038;-46
2021/05/10 05:15:17;;;;;;;0.20;0.10;;;23.60;38.20;;;;;;5031746;28;20029;-46
2021/05/10 05:17:43;;;;;;;0.30;0.10;;;23.60;38.20;;;;;;5031155;28;20026;-50
2021/05/10 05:20:11;;;;;;;0.40;0.10;;;23.60;38.20;;;;;;5033241;28;20030;-50
2021/05/10 05:22:37;;;;;;;0.43;0.00;;;23.60;38.20;;;;;;5031801;28;20445;-46
2021/05/10 05:25:08;;;;;;;0.45;0.10;;;23.60;38.20;;;;;;5025906;28;20030;-48
2021/05/10 05:27:34;;;;;;;0.38;0.00;;;23.60;38.20;;;;;;5027906;28;20037;-49
2021/05/10 05:30:00;;;;;;;0.13;0.00;;;23.60;38.20;;;;;;5017353;28;20056;-48
2021/05/10 05:32:26;;;;;;;0.32;0.03;;;23.60;38.20;;;;;;5029197;28;20490;-51
2021/05/10 05:34:52;;;;;;;0.20;0.10;;;23.60;38.20;;;;;;5035414;28;20029;-51
2021/05/10 05:37:18;;;;;;;0.30;0.10;;;23.60;38.20;;;;;;5031775;28;20517;-49
2021/05/10 05:39:44;;;;;;;0.52;0.03;;;23.60;38.20;;;;;;5035981;28;20037;-46
2021/05/10 05:42:10;;;;;;;0.20;0.05;;;23.60;38.20;;;;;;5033296;28;20374;-49
2021/05/10 05:44:38;;;;;;;0.30;0.10;;;23.60;38.20;;;;;;5017037;28;20029;-48
2021/05/10 05:47:04;;;;;;;0.30;0.10;;;23.60;38.20;;;;;;5037741;28;20087;-49
2021/05/10 05:49:34;;;;;;;1.70;0.00;;;23.60;38.20;;;;;;5026750;28;20597;-49
2021/05/10 05:52:03;;;;;;;0.75;0.10;;;23.60;38.20;;;;;;5034015;28;20017;-49
2021/05/10 05:54:30;;;;;;;0.10;0.00;;;23.60;38.20;;;;;;5024344;28;20562;-49
2021/05/10 05:56:56;;;;;;;0.95;0.20;;;23.60;38.20;;;;;;5026101;28;20045;-49
2021/05/10 05:59:22;;;;;;;1.17;0.10;;;23.60;38.20;;;;;;5017733;28;20095;-51
2021/05/10 06:01:48;;;;;;;0.38;0.13;;;23.60;38.20;;;;;;5018686;28;20026;-50
2021/05/10 06:04:14;;;;;;;0.93;0.10;;;23.60;38.20;;;;;;5030945;28;20025;-51
2021/05/10 06:06:40;;;;;;;0.20;0.10;;;23.60;38.20;;;;;;5029179;28;20168;-49
2021/05/10 06:09:08;;;;;;;0.50;0.10;;;23.60;38.70;;;;;;5052643;28;20021;-50
2021/05/10 06:11:35;;;;;;;0.30;0.10;;;23.60;38.30;;;;;;5030439;28;20645;-49
2021/05/10 06:14:01;;;;;;;2.67;0.13;;;23.60;38.40;;;;;;5033456;28;20551;-46
2021/05/10 06:16:28;;;;;;;0.28;0.10;;;23.60;38.30;;;;;;5042586;28;20039;-49
2021/05/10 06:18:55;;;;;;;0.20;0.10;;;23.60;38.30;;;;;;5031948;28;20034;-50
2021/05/10 06:21:21;;;;;;;0.35;0.10;;;23.60;38.30;;;;;;5020011;28;20096;-47
2021/05/10 06:23:48;;;;;;;0.28;0.10;;;23.60;38.20;;;;;;5037059;28;20150;-49
2021/05/10 06:26:14;;;;;;;0.40;0.10;;;23.60;38.20;;;;;;5028624;28;20084;-49
2021/05/10 06:28:41;;;;;;;0.75;0.10;;;23.60;38.20;;;;;;5036762;28;21517;-48
2021/05/10 06:31:08;;;;;;;0.38;0.17;;;23.60;38.20;;;;;;5039004;28;20079;-49
2021/05/10 06:33:34;;;;;;;0.10;0.00;;;23.60;38.20;;;;;;5023561;28;20021;-48
2021/05/10 06:36:00;;;;;;;1.52;0.10;;;23.60;38.20;;;;;;5043540;28;20025;-51
2021/05/10 06:38:26;;;;;;;0.30;0.10;;;23.60;38.20;;;;;;5038980;28;20020;-47
2021/05/10 06:40:52;;;;;;;0.20;0.08;;;23.60;38.20;;;;;;5041029;28;20034;-47
2021/05/10 06:43:19;;;;;;;0.20;0.10;;;23.60;38.20;;;;;;5032232;28;20160;-49
2021/05/10 06:45:44;;;;;;;0.40;0.10;;;23.60;38.70;;;;;;5030471;28;20033;-50
2021/05/10 06:48:11;;;;;;;1.50;0.10;;;23.60;38.20;;;;;;5042877;28;20132;-48
2021/05/10 06:50:36;;;;;;;0.20;0.10;;;23.60;38.20;;;;;;5036879;28;20053;-48
2021/05/10 06:53:03;;;;;;;0.38;0.17;;;23.60;38.20;;;;;;5028391;28;20485;-48
2021/05/10 06:55:28;;;;;;;0.57;0.10;;;23.60;38.20;;;;;;5026687;28;20097;-49
2021/05/10 06:57:54;;;;;;;0.40;0.00;;;23.60;38.20;;;;;;5032634;28;20100;-48
2021/05/10 07:00:20;;;;;;;0.80;0.10;;;23.60;38.20;;;;;;5010882;28;20025;-49
2021/05/10 07:02:46;;;;;;;0.10;0.08;;;23.60;38.20;;;;;;5041528;28;20028;-50
2021/05/10 07:05:12;;;;;;;0.50;0.10;;;23.60;38.10;;;;;;5033294;28;20027;-50
2021/05/10 07:07:38;;;;;;;0.40;0.10;;;23.60;38.10;;;;;;5051515;28;20092;-52
2021/05/10 07:10:05;;;;;;;0.43;0.10;;;23.70;38.20;;;;;;5042792;28;20673;-51
2021/05/10 07:12:31;;;;;;;0.45;0.13;;;23.60;38.10;;;;;;5035334;28;20071;-49
2021/05/10 07:14:57;;;;;;;0.30;0.10;;;23.60;38.10;;;;;;5025434;28;20025;-48
2021/05/10 07:17:23;;;;;;;0.13;0.05;;;23.70;38.10;;;;;;5027713;28;20445;-49
2021/05/10 07:19:49;;;;;;;0.30;0.10;;;23.70;38.10;;;;;;5027678;28;20203;-49
2021/05/10 07:22:15;;;;;;;0.57;0.10;;;23.60;38.10;;;;;;5029002;28;20021;-49
2021/05/10 07:24:41;;;;;;;0.77;0.10;;;23.70;38.20;;;;;;5031079;28;20048;-50
2021/05/10 07:27:06;;;;;;;0.20;0.00;;;23.60;38.10;;;;;;5028404;28;20522;-49
2021/05/10 07:29:34;;;;;;;0.40;0.10;;;23.70;38.10;;;;;;5025966;28;20089;-50
2021/05/10 07:32:00;;;;;;;0.38;0.10;;;23.70;38.10;;;;;;5027316;28;20064;-52
2021/05/10 07:34:27;;;;;;;0.50;0.10;;;23.70;38.40;;;;;;5022175;28;20061;-51
2021/05/10 07:36:53;;;;;;;0.10;0.00;;;23.80;38.20;;;;;;5028394;28;20113;-52
2021/05/10 07:39:19;;;;;;;0.30;0.10;;;23.80;38.30;;;;;;5027913;28;20109;-51
2021/05/10 07:41:44;;;;;;;0.30;0.00;;;23.90;38.50;;;;;;5020012;28;20433;-52
2021/05/10 07:44:10;;;;;;;0.30;0.10;;;23.90;38.80;;;;;;5033087;28;20029;-52
2021/05/10 07:46:36;;;;;;;0.20;0.03;;;23.90;39.00;;;;;;5028856;28;20053;-51
2021/05/10 07:49:03;;;;;;;0.55;0.05;;;24.00;39.10;;;;;;5035797;28;20104;-52
2021/05/10 07:51:29;;;;;;;0.30;0.00;;;24.00;38.90;;;;;;5026687;28;20163;-51
2021/05/10 07:53:56;;;;;;;0.30;0.00;;;24.00;39.10;;;;;;5044775;22;20070;-49
2021/05/10 07:56:23;;;;;;;0.30;0.10;;;24.00;39.00;;;;;;5049049;28;20021;-50
2021/05/10 07:58:49;;;;;;;0.35;0.10;;;24.00;39.40;;;;;;5044152;28;20029;-49
2021/05/10 08:01:15;;;;;;;0.47;0.10;;;24.10;39.30;;;;;;5047810;28;20029;-49
2021/05/10 08:03:43;;;;;;;0.30;0.10;;;24.10;39.60;;;;;;5049845;28;20025;-51
2021/05/10 08:06:09;;;;;;;0.20;0.00;;;24.10;39.60;;;;;;5021233;28;20415;-48
2021/05/10 08:08:36;;;;;;;0.50;0.00;;;24.10;39.40;;;;;;5017129;28;20037;-47
2021/05/10 08:11:03;;;;;;;1.15;0.10;;;24.10;39.60;;;;;;5030707;28;20037;-44
2021/05/10 08:13:29;;;;;;;0.15;0.00;;;24.20;39.70;;;;;;5030755;28;20033;-48
2021/05/10 08:15:55;;;;;;;0.50;0.10;;;24.10;39.50;;;;;;5019063;28;20425;-47
2021/05/10 08:18:21;;;;;;;0.17;0.00;;;24.10;39.70;;;;;;5031039;28;20071;-46
2021/05/10 08:20:47;;;;;;;0.50;0.00;;;24.10;39.60;;;;;;5028469;28;20498;-46
2021/05/10 08:23:13;;;;;;;0.25;0.10;;;24.20;39.50;;;;;;5030859;28;20042;-50
2021/05/10 08:25:42;;;;;;;0.20;0.10;;;24.10;39.60;;;;;;5028610;28;20037;-47
2021/05/10 08:28:08;;;;;;;0.32;0.10;;;24.20;39.60;;;;;;5029296;28;20109;-45
2021/05/10 08:30:34;;;;;;;0.47;0.10;;;24.20;39.60;;;;;;5027184;28;20037;-53
2021/05/10 08:33:01;;;;;;;0.43;0.10;;;24.20;39.80;;;;;;5030681;28;20064;-48
2021/05/10 08:35:28;;;;;;;1.08;0.10;;;24.20;39.70;;;;;;5026322;28;20112;-48
2021/05/10 08:37:54;;;;;;;0.32;0.13;;;24.20;39.70;;;;;;5027184;28;20109;-53
2021/05/10 08:40:20;;;;;;;1.42;0.10;;;24.20;39.50;;;;;;5027573;28;20053;-45
2021/05/10 08:42:46;;;;;;;0.43;0.10;;;24.20;39.70;;;;;;5026665;28;20033;-50
2021/05/10 08:45:20;;;;;;;1.70;0.10;;;24.30;39.70;;;;;;5030906;28;20026;-46
2021/05/10 08:47:47;;;;;;;0.20;0.10;;;24.30;39.80;;;;;;5031066;28;20113;-46
2021/05/10 08:50:14;;;;;;;0.20;0.00;;;24.30;40.00;;;;;;5029710;28;20029;-46
2021/05/10 08:52:42;;;;;;;0.40;0.10;;;24.30;39.90;;;;;;5029569;28;20061;-44
2021/05/10 08:55:08;;;;;;;0.30;0.10;;;24.30;39.80;;;;;;5037743;28;20061;-42
2021/05/10 08:57:34;;;;;;;1.50;0.05;;;24.30;39.90;;;;;;5032168;28;20026;-46
2021/05/10 09:00:00;;;;;;;0.20;0.10;;;24.40;40.00;;;;;;5038444;28;20033;-43
2021/05/10 09:02:34;;;;;;;2.38;0.00;;;24.40;40.20;;;;;;5032178;28;20036;-48
2021/05/10 09:05:20;;;;;;;0.20;0.00;;;24.40;39.90;;;;;;5028907;28;20029;-46
2021/05/10 09:08:05;;;;;;;1.17;0.13;;;24.30;40.00;;;;;;5029751;28;20068;-47
2021/05/10 09:10:31;;;;;;;0.52;0.10;;;24.30;40.10;;;;;;5027141;28;20041;-49
2021/05/10 09:12:58;;;;;;;0.25;0.00;;;24.30;39.90;;;;;;5029625;28;20025;-50
2021/05/10 09:15:28;;;;;;;0.57;0.10;;;24.30;39.80;;;;;;5025006;28;20505;-46
2021/05/10 09:18:01;;;;;;;0.70;0.10;;;24.40;39.90;;;;;;5027500;28;20064;-44
2021/05/10 09:20:47;;;;;;;0.10;0.00;;;24.40;39.80;;;;;;5026736;28;20093;-46
2021/05/10 09:23:14;;;;;;;0.25;0.10;;;24.40;39.70;;;;;;5030533;28;20030;-46
2021/05/10 09:25:44;;;;;;;0.57;0.10;;;24.50;39.70;;;;;;5029025;28;20454;-46
2021/05/10 09:28:23;;;;;;;0.40;0.10;;;24.50;39.80;;;;;;5029983;28;20068;-47
2021/05/10 09:30:54;;;;;;;0.50;0.10;;;24.50;39.80;;;;;;5028651;28;20125;-46
2021/05/10 09:33:24;;;;;;;0.53;0.10;;;24.50;39.90;;;;;;5029687;28;20406;-47
2021/05/10 09:36:05;;;;;;;0.30;0.10;;;24.40;39.80;;;;;;5025232;28;20991;-47
2021/05/10 09:38:31;;;;;;;0.20;0.00;;;24.40;39.80;;;;;;5030689;28;20040;-47
2021/05/10 09:41:00;;;;;;;0.43;0.00;;;24.50;39.90;;;;;;5031124;28;20055;-44
2021/05/10 09:43:28;;;;;;;0.30;0.00;;;24.50;39.90;;;;;;5035764;28;20060;-45
2021/05/10 09:45:55;;;;;;;2.38;0.10;;;24.50;39.90;;;;;;5030981;28;20041;-52
2021/05/10 09:48:39;;;;;;;0.60;0.00;;;24.60;40.10;;;;;;5034229;28;20029;-48
2021/05/10 09:51:08;;;;;;;2.17;0.10;;;24.60;40.00;;;;;;5033454;28;20435;-48
2021/05/10 09:53:50;;;;;;;0.32;0.10;;;24.50;40.00;;;;;;5033500;28;20033;-50
2021/05/10 09:56:16;;;;;;;;;;;24.50;40.00;;;;;;5034110;28;20100;-44
2021/05/10 09:58:43;;;;;;;0.08;0.00;;;24.50;39.90;;;;;;5030076;28;20008;-48
2021/05/10 10:01:10;;;;;;;0.38;0.10;;;24.50;40.00;;;;;;5032118;28;20083;-50
2021/05/10 10:03:44;;;;;;;0.45;0.08;;;24.60;40.00;;;;;;5033495;28;20394;-47
2021/05/10 10:06:15;;;;;;;0.20;0.00;;;24.60;40.00;;;;;;5027433;28;20646;-46
2021/05/10 10:08:43;;;;;;;0.45;0.10;;;24.60;40.10;;;;;;5034907;28;20029;-43
2021/05/10 10:11:12;;;;;;;0.57;0.10;;;24.60;40.00;;;;;;5028080;28;20086;-41
2021/05/10 10:13:38;;;;;;;0.70;0.15;;;24.60;40.00;;;;;;5030993;28;20017;-45
2021/05/10 10:16:07;;;;;;;0.13;0.00;;;24.60;40.00;;;;;;5030307;28;20057;-48
2021/05/10 10:18:36;;;;;;;0.85;0.00;;;24.60;40.00;;;;;;5032937;28;20033;-48
2021/05/10 10:21:03;;;;;;;0.25;0.10;;;24.70;40.20;;;;;;5034329;28;20044;-48
2021/05/10 10:23:29;;;;;;;0.10;0.08;;;24.60;39.90;;;;;;5037396;28;20037;-45
2021/05/10 10:25:57;;;;;;;0.32;0.00;;;24.70;39.90;;;;;;5034151;28;20033;-47
2021/05/10 10:28:26;;;;;;;1.65;0.00;;;24.60;40.00;;;;;;5028211;28;20033;-47
2021/05/10 10:31:07;;;;;;;0.10;0.00;;;24.70;40.20;;;;;;5025881;28;20056;-42
2021/05/10 10:34:10;;;;;;;0.08;0.00;;;24.70;40.10;;;;;;5029710;28;20079;-45
2021/05/10 10:36:44;;;;;;;1.10;0.00;;;24.70;40.10;;;;;;5030753;28;20072;-43
2021/05/10 10:39:14;;;;;;;0.85;0.00;;;24.60;40.10;;;;;;5033654;28;20034;-42
2021/05/10 10:42:09;;;;;;;0.20;0.00;;;24.60;40.10;;;;;;5032324;28;20030;-47
2021/05/10 10:44:46;;;;;;;0.50;0.05;;;24.70;40.10;;;;;;5029080;28;20033;-46
2021/05/10 10:47:14;;;;;;;1.55;0.00;;;24.70;40.10;;;;;;5033181;28;20116;-44
2021/05/10 10:49:42;;;;;;;0.52;0.00;;;24.70;40.20;;;;;;5032648;28;20041;-43
2021/05/10 10:52:24;;;;;;;0.75;0.00;;;24.70;40.30;;;;;;5032172;28;20110;-47
2021/05/10 10:55:22;;;;;;;2.05;0.00;;;24.70;40.30;;;;;;5032042;28;20026;-44
2021/05/10 10:57:48;;;;;;;0.10;0.00;;;24.70;40.10;;;;;;5026695;28;20095;-43
2021/05/10 11:00:17;;;;;;;0.47;0.03;;;24.70;40.10;;;;;;5032382;28;20024;-46
2021/05/10 11:02:49;;;;;;;2.08;0.00;;;24.70;40.30;;;;;;5031531;28;20038;-48
2021/05/10 11:05:20;;;;;;;0.32;0.00;;;24.80;40.40;;;;;;5031818;28;20088;-44
2021/05/10 11:08:01;;;;;;;3.63;0.20;;;24.80;40.30;;;;;;5032261;28;20044;-44
2021/05/10 11:10:51;;;;;;;0.65;0.00;;;24.80;40.20;;;;;;5024597;28;20830;-44
2021/05/10 11:13:29;;;;;;;0.70;0.00;;;24.80;40.30;;;;;;5026334;28;20518;-41
2021/05/10 11:15:56;;;;;;;0.28;0.00;;;24.80;40.40;;;;;;5030716;28;20104;-45
2021/05/10 11:18:48;;;;;;;1.38;0.10;;;24.80;40.50;;;;;;5030573;28;20573;-43
2021/05/10 11:21:38;;;;;;;0.30;0.00;;;24.80;40.60;;;;;;5022651;28;20044;-44
2021/05/10 11:24:05;;;;;;;0.20;0.05;;;24.80;40.40;;;;;;5019716;28;20049;-44
2021/05/10 11:26:51;;;;;;;0.45;0.10;;;24.80;40.40;;;;;;5030950;28;20030;-48
2021/05/10 11:29:26;;;;;;;0.45;0.10;;;24.80;40.50;;;;;;5031128;28;20116;-42
2021/05/10 11:32:08;;;;;;;1.10;0.10;;;24.80;40.60;;;;;;5028768;28;20103;-48
2021/05/10 11:34:37;;;;;;;2.28;0.00;;;24.80;40.50;;;;;;5025660;28;20039;-44
2021/05/10 11:37:05;;;;;;;0.20;0.00;;;24.80;40.50;;;;;;5024177;28;20029;-49
2021/05/10 11:39:35;;;;;;;0.10;0.00;;;24.80;40.40;;;;;;5029090;28;20022;-44
2021/05/10 11:42:02;;;;;;;3.38;0.00;;;24.80;40.50;;;;;;5028862;28;20109;-47
2021/05/10 11:44:29;;;;;;;0.20;0.10;;;24.80;40.50;;;;;;5025941;28;20042;-47
2021/05/10 11:46:59;;;;;;;0.10;0.00;;;24.80;40.40;;;;;;5031792;28;20034;-48
2021/05/10 11:49:35;;;;;;;0.20;0.00;;;24.80;40.40;;;;;;5030802;28;20036;-43
2021/05/10 11:52:09;;;;;;;0.55;0.00;;;24.90;40.40;;;;;;5025965;28;20029;-47
2021/05/10 11:54:36;;;;;;;0.28;0.00;;;24.90;40.50;;;;;;5029800;28;20071;-47
2021/05/10 11:57:04;;;;;;;0.10;0.00;;;24.90;40.50;;;;;;5025200;28;20097;-47
2021/05/10 11:59:41;;;;;;;0.60;0.00;;;24.90;40.60;;;;;;5033801;28;20390;-43
2021/05/10 12:02:11;;;;;;;0.63;0.10;;;24.90;40.60;;;;;;5030734;28;20049;-41
2021/05/10 12:04:39;;;;;;;0.40;0.00;;;24.90;40.60;;;;;;5029894;28;20112;-48
2021/05/10 12:07:06;;;;;;;0.10;0.00;;;24.90;41.00;;;;;;5028233;28;20026;-45
2021/05/10 12:09:45;;;;;;;1.83;0.00;;;25.00;40.90;;;;;;5032280;28;20044;-47
2021/05/10 12:12:13;;;;;;;0.22;0.00;;;24.90;40.80;;;;;;5025977;28;20046;-45
2021/05/10 12:14:40;;;;;;;2.83;0.10;;;25.00;41.00;;;;;;5020818;28;20098;-47
2021/05/10 12:17:18;;;;;;;0.20;0.05;;;25.00;40.90;;;;;;5023885;28;20033;-46
2021/05/10 12:20:31;;;;;;;3.53;0.10;;;25.00;40.80;;;;;;5022206;28;20029;-47
2021/05/10 12:23:02;;;;;;;0.30;0.05;;;25.00;40.60;;;;;;5027377;28;20037;-42
2021/05/10 12:25:32;;;;;;;0.63;0.05;;;25.10;40.70;;;;;;5023305;28;20040;-42
2021/05/10 12:28:08;;;;;;;0.30;0.00;;;25.00;40.50;;;;;;5029723;28;20034;-44
2021/05/10 12:30:47;;;;;;;0.10;0.00;;;25.00;40.50;;;;;;5029259;28;20033;-48
2021/05/10 12:33:27;;;;;;;2.65;0.10;;;25.00;40.60;;;;;;5025956;28;20537;-45
2021/05/10 12:36:04;;;;;;;1.30;0.00;;;25.00;40.70;;;;;;5030461;28;20036;-49
2021/05/10 12:38:36;;;;;;;0.30;0.00;;;25.00;40.60;;;;;;5028270;28;20445;-48
2021/05/10 12:41:05;;;;;;;0.68;0.10;;;25.00;40.50;;;;;;5023355;28;20022;-43
2021/05/10 12:43:33;;;;;;;0.90;0.10;;;25.00;40.50;;;;;;5021442;28;20112;-42
2021/05/10 12:46:00;;;;;;;1.15;0.10;;;24.90;40.40;;;;;;5026305;28;20045;-44
2021/05/10 12:48:39;;;;;;;0.90;0.10;;;24.80;40.30;;;;;;5024518;28;20044;-45
2021/05/10 12:51:09;;;;;;;0.60;0.10;;;24.90;40.50;;;;;;5027898;28;20018;-43
2021/05/10 12:53:43;;;;;;;1.58;0.10;;;24.90;40.40;;;;;;5022249;28;20040;-48
2021/05/10 12:56:11;;;;;;;8.85;0.52;;;24.90;40.30;;;;;;5028239;28;20109;-45
2021/05/10 12:58:38;;;;;;;0.40;0.10;;;24.90;40.30;;;;;;5024948;28;20589;-48